sensor_id;sensor_type;location;lat;lon;timestamp;temperature;humidity
42187;DHT22;27858;51.414;0.018;2023-04-03T04:01:04;3.30;99.90
42187;DHT22;27858;51.414;0.018;2023-04-03T04:03:32;3.30;99.90
42187;DHT22;27858;51.414;0.018;2023-04-03T04:06:00;3.40;99.90
42187;DHT22;27858;51.414;0.018;2023-04-03T04:08:27;3.30;99.90
42187;DHT22;27858;51.414;0.018;2023-04-03T04:10:53;3.30;99.90
42187;DHT22;27858;51.414;0.018;2023-04-03T04:13:20;3.40;99.90
42187;DHT22;27858;51.414;0.018;2023-04-03T04:15:47;3.40;99.90
42187;DHT22;27858;51.414;0.018;2023-04-03T04:18:14;3.40;99.90
42187;DHT22;27858;51.414;0.018;2023-04-03T04:20:41;3.50;99.90
42187;DHT22;27858;51.414;0.018;2023-04-03T04:23:07;3.60;99.90
42187;DHT22;27858;51.414;0.018;2023-04-03T04:25:34;3.50;99.90
42187;DHT22;27858;51.414;0.018;2023-04-03T04:28:01;3.60;99.90
42187;DHT22;27858;51.414;0.018;2023-04-03T04:30:28;3.60;99.90
42187;DHT22;27858;51.414;0.018;2023-04-03T04:32:55;3.70;99.90
42187;DHT22;27858;51.414;0.018;2023-04-03T04:35:22;3.70;99.90
42187;DHT22;27858;51.414;0.018;2023-04-03T04:37:48;3.60;99.90
42187;DHT22;27858;51.414;0.018;2023-04-03T04:40:16;3.60;99.90
42187;DHT22;27858;51.414;0.018;2023-04-03T04:42:43;3.60;99.90
42187;DHT22;27858;51.414;0.018;2023-04-03T04:45:10;3.60;99.90
42187;DHT22;27858;51.414;0.018;2023-04-03T04:47:36;3.70;99.90
42187;DHT22;27858;51.414;0.018;2023-04-03T04:50:04;3.70;99.90
42187;DHT22;27858;51.414;0.018;2023-04-03T04:52:31;3.70;99.90
42187;DHT22;27858;51.414;0.018;2023-04-03T04:54:58;3.70;99.90
42187;DHT22;27858;51.414;0.018;2023-04-03T04:57:24;3.70;99.90
42187;DHT22;27858;51.414;0.018;2023-04-03T04:59:51;3.70;99.90
42187;DHT22;27858;51.414;0.018;2023-04-03T05:02:18;3.70;99.90
42187;DHT22;27858;51.414;0.018;2023-04-03T05:04:45;3.70;99.90
42187;DHT22;27858;51.414;0.018;2023-04-03T05:07:12;3.80;99.90
42187;DHT22;27858;51.414;0.018;2023-04-03T05:09:38;3.90;99.90
42187;DHT22;27858;51.414;0.018;2023-04-03T05:12:07;3.80;99.90
42187;DHT22;27858;51.414;0.018;2023-04-03T05:14:34;3.90;99.90
42187;DHT22;27858;51.414;0.018;2023-04-03T05:17:01;4.00;99.90
42187;DHT22;27858;51.414;0.018;2023-04-03T05:19:28;4.00;99.90
42187;DHT22;27858;51.414;0.018;2023-04-03T05:21:54;4.00;99.90
42187;DHT22;27858;51.414;0.018;2023-04-03T05:24:21;4.00;99.90
42187;DHT22;27858;51.414;0.018;2023-04-03T05:26:48;4.10;99.90
42187;DHT22;27858;51.414;0.018;2023-04-03T05:29:15;4.10;99.90
42187;DHT22;27858;51.414;0.018;2023-04-03T05:31:42;4.10;99.90
42187;DHT22;27858;51.414;0.018;2023-04-03T05:34:09;4.10;99.90
42187;DHT22;27858;51.414;0.018;2023-04-03T05:36:36;4.10;99.90
42187;DHT22;27858;51.414;0.018;2023-04-03T05:39:03;4.10;99.90
42187;DHT22;27858;51.414;0.018;2023-04-03T05:41:30;4.10;99.90
42187;DHT22;27858;51.414;0.018;2023-04-03T05:43:57;4.20;99.90
42187;DHT22;27858;51.414;0.018;2023-04-03T05:46:24;4.30;99.90
42187;DHT22;27858;51.414;0.018;2023-04-03T05:48:51;4.20;99.90
42187;DHT22;27858;51.414;0.018;2023-04-03T05:51:22;4.10;99.90
42187;DHT22;27858;51.414;0.018;2023-04-03T05:53:52;4.20;99.90
42187;DHT22;27858;51.414;0.018;2023-04-03T05:56:21;4.20;99.90
42187;DHT22;27858;51.414;0.018;2023-04-03T05:58:48;4.30;99.90
42187;DHT22;27858;51.414;0.018;2023-04-03T06:01:14;4.30;99.90
42187;DHT22;27858;51.414;0.018;2023-04-03T06:03:42;4.40;99.90
42187;DHT22;27858;51.414;0.018;2023-04-03T06:06:13;4.40;99.90
42187;DHT22;27858;51.414;0.018;2023-04-03T06:08:40;4.40;99.90
42187;DHT22;27858;51.414;0.018;2023-04-03T06:11:07;4.40;99.90
42187;DHT22;27858;51.414;0.018;2023-04-03T06:13:35;4.50;99.90
42187;DHT22;27858;51.414;0.018;2023-04-03T06:16:02;4.50;99.90
42187;DHT22;27858;51.414;0.018;2023-04-03T06:18:29;4.60;99.90
42187;DHT22;27858;51.414;0.018;2023-04-03T06:20:56;4.70;99.90
42187;DHT22;27858;51.414;0.018;2023-04-03T06:23:25;4.70;99.90
42187;DHT22;27858;51.414;0.018;2023-04-03T06:25:51;4.80;99.90
42187;DHT22;27858;51.414;0.018;2023-04-03T06:28:18;4.80;99.90
42187;DHT22;27858;51.414;0.018;2023-04-03T06:30:45;4.90;99.90
42187;DHT22;27858;51.414;0.018;2023-04-03T06:33:12;5.00;99.90
42187;DHT22;27858;51.414;0.018;2023-04-03T06:35:39;4.90;99.90
42187;DHT22;27858;51.414;0.018;2023-04-03T06:38:07;5.00;99.90
42187;DHT22;27858;51.414;0.018;2023-04-03T06:40:36;5.00;99.90
42187;DHT22;27858;51.414;0.018;2023-04-03T06:43:03;5.00;99.90
42187;DHT22;27858;51.414;0.018;2023-04-03T06:45:30;5.00;99.90
42187;DHT22;27858;51.414;0.018;2023-04-03T06:47:57;5.10;99.90
42187;DHT22;27858;51.414;0.018;2023-04-03T06:50:24;5.10;99.90
42187;DHT22;27858;51.414;0.018;2023-04-03T06:52:50;5.10;99.90
42187;DHT22;27858;51.414;0.018;2023-04-03T06:55:17;5.20;99.90
42187;DHT22;27858;51.414;0.018;2023-04-03T06:57:44;5.30;99.90
42187;DHT22;27858;51.414;0.018;2023-04-03T07:00:11;5.20;99.90
42187;DHT22;27858;51.414;0.018;2023-04-03T07:02:38;5.30;99.90
42187;DHT22;27858;51.414;0.018;2023-04-03T07:05:05;5.40;99.90
42187;DHT22;27858;51.414;0.018;2023-04-03T07:07:32;5.50;99.90
42187;DHT22;27858;51.414;0.018;2023-04-03T07:10:01;5.60;99.90
42187;DHT22;27858;51.414;0.018;2023-04-03T07:12:27;5.80;99.90
42187;DHT22;27858;51.414;0.018;2023-04-03T07:14:54;5.90;99.90
42187;DHT22;27858;51.414;0.018;2023-04-03T07:17:21;5.70;99.90
42187;DHT22;27858;51.414;0.018;2023-04-03T07:19:48;5.70;99.90
42187;DHT22;27858;51.414;0.018;2023-04-03T07:22:14;5.80;99.90
42187;DHT22;27858;51.414;0.018;2023-04-03T07:24:41;5.80;99.90
42187;DHT22;27858;51.414;0.018;2023-04-03T07:27:08;5.80;99.90
42187;DHT22;27858;51.414;0.018;2023-04-03T07:29:35;5.80;99.90
42187;DHT22;27858;51.414;0.018;2023-04-03T07:32:02;5.90;99.90
42187;DHT22;27858;51.414;0.018;2023-04-03T07:34:29;5.90;99.90
42187;DHT22;27858;51.414;0.018;2023-04-03T07:36:57;5.90;99.90
42187;DHT22;27858;51.414;0.018;2023-04-03T07:39:24;6.00;99.90
42187;DHT22;27858;51.414;0.018;2023-04-03T07:41:52;6.10;99.90
42187;DHT22;27858;51.414;0.018;2023-04-03T07:44:19;6.20;99.90
42187;DHT22;27858;51.414;0.018;2023-04-03T07:46:45;6.40;99.90
42187;DHT22;27858;51.414;0.018;2023-04-03T07:49:13;6.50;99.90
42187;DHT22;27858;51.414;0.018;2023-04-03T07:51:40;6.60;99.90
42187;DHT22;27858;51.414;0.018;2023-04-03T07:54:07;6.70;99.90
42187;DHT22;27858;51.414;0.018;2023-04-03T07:56:33;6.80;99.90
42187;DHT22;27858;51.414;0.018;2023-04-03T07:59:00;6.80;99.90
42187;DHT22;27858;51.414;0.018;2023-04-03T08:01:27;6.80;99.90
42187;DHT22;27858;51.414;0.018;2023-04-03T08:03:54;6.80;99.90
42187;DHT22;27858;51.414;0.018;2023-04-03T08:06:21;6.90;99.90
42187;DHT22;27858;51.414;0.018;2023-04-03T08:09:03;6.90;99.90
42187;DHT22;27858;51.414;0.018;2023-04-03T08:11:30;6.90;99.90
42187;DHT22;27858;51.414;0.018;2023-04-03T08:13:57;6.90;99.90
42187;DHT22;27858;51.414;0.018;2023-04-03T08:16:24;7.00;99.90
42187;DHT22;27858;51.414;0.018;2023-04-03T08:18:55;7.00;99.90
42187;DHT22;27858;51.414;0.018;2023-04-03T08:21:22;7.20;99.90
42187;DHT22;27858;51.414;0.018;2023-04-03T08:23:49;7.30;99.90
42187;DHT22;27858;51.414;0.018;2023-04-03T08:26:20;7.30;99.90
42187;DHT22;27858;51.414;0.018;2023-04-03T08:28:48;7.30;99.90
42187;DHT22;27858;51.414;0.018;2023-04-03T08:31:18;7.40;99.90
42187;DHT22;27858;51.414;0.018;2023-04-03T08:33:46;7.40;99.90
42187;DHT22;27858;51.414;0.018;2023-04-03T08:36:21;7.60;99.90
42187;DHT22;27858;51.414;0.018;2023-04-03T08:38:50;7.70;99.90
42187;DHT22;27858;51.414;0.018;2023-04-03T08:49:39;7.90;99.90
42187;DHT22;27858;51.414;0.018;2023-04-03T08:52:12;8.00;99.90
42187;DHT22;27858;51.414;0.018;2023-04-03T08:57:34;8.20;99.90
42187;DHT22;27858;51.414;0.018;2023-04-03T09:00:24;8.20;99.90
42187;DHT22;27858;51.414;0.018;2023-04-03T09:02:54;8.30;99.90
42187;DHT22;27858;51.414;0.018;2023-04-03T09:07:57;8.40;99.90
42187;DHT22;27858;51.414;0.018;2023-04-03T09:10:32;8.60;99.90
42187;DHT22;27858;51.414;0.018;2023-04-03T09:13:04;8.70;99.90
42187;DHT22;27858;51.414;0.018;2023-04-03T09:15:33;8.80;99.90
42187;DHT22;27858;51.414;0.018;2023-04-03T09:18:09;9.00;99.90
42187;DHT22;27858;51.414;0.018;2023-04-03T09:23:49;9.30;99.90
42187;DHT22;27858;51.414;0.018;2023-04-03T09:26:28;9.50;99.90
42187;DHT22;27858;51.414;0.018;2023-04-03T09:29:00;9.70;99.90
42187;DHT22;27858;51.414;0.018;2023-04-03T09:31:30;9.80;99.90
42187;DHT22;27858;51.414;0.018;2023-04-03T09:34:28;9.90;99.90
42187;DHT22;27858;51.414;0.018;2023-04-03T09:36:58;10.00;99.90
42187;DHT22;27858;51.414;0.018;2023-04-03T09:39:29;10.00;99.90
42187;DHT22;27858;51.414;0.018;2023-04-03T09:42:14;9.90;99.90
42187;DHT22;27858;51.414;0.018;2023-04-03T09:44:54;10.10;99.90
42187;DHT22;27858;51.414;0.018;2023-04-03T09:47:28;10.30;99.90
42187;DHT22;27858;51.414;0.018;2023-04-03T09:52:42;10.40;99.90
42187;DHT22;27858;51.414;0.018;2023-04-03T09:55:19;10.40;99.90
42187;DHT22;27858;51.414;0.018;2023-04-03T09:57:48;10.40;99.90
42187;DHT22;27858;51.414;0.018;2023-04-03T10:00:25;10.40;99.90
42187;DHT22;27858;51.414;0.018;2023-04-03T10:02:56;10.40;99.90
42187;DHT22;27858;51.414;0.018;2023-04-03T10:05:36;10.40;99.90
42187;DHT22;27858;51.414;0.018;2023-04-03T10:10:41;10.50;99.90
42187;DHT22;27858;51.414;0.018;2023-04-03T10:13:19;10.60;99.90
42187;DHT22;27858;51.414;0.018;2023-04-03T10:15:56;10.50;99.90
42187;DHT22;27858;51.414;0.018;2023-04-03T10:18:50;10.50;99.90
42187;DHT22;27858;51.414;0.018;2023-04-03T10:24:25;10.60;99.90
42187;DHT22;27858;51.414;0.018;2023-04-03T10:26:57;10.60;99.90
42187;DHT22;27858;51.414;0.018;2023-04-03T10:29:46;10.60;99.90
42187;DHT22;27858;51.414;0.018;2023-04-03T10:38:16;10.60;99.90
42187;DHT22;27858;51.414;0.018;2023-04-03T10:40:59;10.80;99.90
42187;DHT22;27858;51.414;0.018;2023-04-03T10:52:07;11.20;13.20
42187;DHT22;27858;51.414;0.018;2023-04-03T10:54:44;11.20;1.00
42187;DHT22;27858;51.414;0.018;2023-04-03T10:57:13;11.30;1.00
42187;DHT22;27858;51.414;0.018;2023-04-03T10:59:44;11.30;1.00
42187;DHT22;27858;51.414;0.018;2023-04-03T11:02:41;11.30;99.90
42187;DHT22;27858;51.414;0.018;2023-04-03T11:08:11;11.50;99.90
42187;DHT22;27858;51.414;0.018;2023-04-03T11:10:43;11.50;99.90
42187;DHT22;27858;51.414;0.018;2023-04-03T11:15:46;11.90;99.90
42187;DHT22;27858;51.414;0.018;2023-04-03T11:18:21;12.00;99.90
42187;DHT22;27858;51.414;0.018;2023-04-03T11:21:13;12.00;99.90
42187;DHT22;27858;51.414;0.018;2023-04-03T11:23:44;12.10;99.90
42187;DHT22;27858;51.414;0.018;2023-04-03T11:26:18;12.20;99.90
42187;DHT22;27858;51.414;0.018;2023-04-03T11:28:45;12.40;99.90
42187;DHT22;27858;51.414;0.018;2023-04-03T11:36:25;12.70;99.90
42187;DHT22;27858;51.414;0.018;2023-04-03T11:39:02;12.60;99.90
42187;DHT22;27858;51.414;0.018;2023-04-03T11:41:33;12.60;99.90
42187;DHT22;27858;51.414;0.018;2023-04-03T11:44:03;12.70;99.90
42187;DHT22;27858;51.414;0.018;2023-04-03T12:16:27;12.50;99.90
42187;DHT22;27858;51.414;0.018;2023-04-03T12:24:03;12.40;99.90
42187;DHT22;27858;51.414;0.018;2023-04-03T12:45:48;12.60;99.90
42187;DHT22;27858;51.414;0.018;2023-04-03T12:48:25;12.70;99.90
42187;DHT22;27858;51.414;0.018;2023-04-03T12:50:52;12.80;99.90
42187;DHT22;27858;51.414;0.018;2023-04-03T12:53:27;12.80;99.90
42187;DHT22;27858;51.414;0.018;2023-04-03T12:55:58;12.70;99.90
42187;DHT22;27858;51.414;0.018;2023-04-03T12:58:44;12.80;99.90
42187;DHT22;27858;51.414;0.018;2023-04-03T13:01:14;12.80;99.90
42187;DHT22;27858;51.414;0.018;2023-04-03T13:03:45;12.80;99.90
42187;DHT22;27858;51.414;0.018;2023-04-03T13:06:21;12.80;99.90
42187;DHT22;27858;51.414;0.018;2023-04-03T13:08:53;12.90;99.90
42187;DHT22;27858;51.414;0.018;2023-04-03T13:11:21;12.90;99.90
42187;DHT22;27858;51.414;0.018;2023-04-03T13:14:04;12.90;99.90
42187;DHT22;27858;51.414;0.018;2023-04-03T13:16:34;12.90;99.90
42187;DHT22;27858;51.414;0.018;2023-04-03T13:19:01;12.90;99.90
42187;DHT22;27858;51.414;0.018;2023-04-03T13:21:31;13.00;99.90
42187;DHT22;27858;51.414;0.018;2023-04-03T13:24:01;13.20;99.90
42187;DHT22;27858;51.414;0.018;2023-04-03T13:26:42;13.20;99.90
42187;DHT22;27858;51.414;0.018;2023-04-03T13:29:32;13.30;99.90
42187;DHT22;27858;51.414;0.018;2023-04-03T13:32:00;13.50;99.90
42187;DHT22;27858;51.414;0.018;2023-04-03T13:34:40;13.60;99.90
42187;DHT22;27858;51.414;0.018;2023-04-03T13:37:22;13.90;99.90
42187;DHT22;27858;51.414;0.018;2023-04-03T13:42:28;14.40;99.90
42187;DHT22;27858;51.414;0.018;2023-04-03T13:45:16;14.70;99.90
42187;DHT22;27858;51.414;0.018;2023-04-03T13:47:44;14.60;99.90
42187;DHT22;27858;51.414;0.018;2023-04-03T13:50:14;15.00;99.90
42187;DHT22;27858;51.414;0.018;2023-04-03T13:52:48;15.10;99.90
42187;DHT22;27858;51.414;0.018;2023-04-03T13:55:51;15.30;99.90
42187;DHT22;27858;51.414;0.018;2023-04-03T13:58:26;15.50;99.90
42187;DHT22;27858;51.414;0.018;2023-04-03T14:01:18;15.60;99.90
42187;DHT22;27858;51.414;0.018;2023-04-03T14:03:57;16.00;99.90
42187;DHT22;27858;51.414;0.018;2023-04-03T14:06:25;16.10;99.90
42187;DHT22;27858;51.414;0.018;2023-04-03T14:08:52;16.10;99.90
42187;DHT22;27858;51.414;0.018;2023-04-03T14:11:21;15.90;99.90
42187;DHT22;27858;51.414;0.018;2023-04-03T14:13:50;16.00;99.90
42187;DHT22;27858;51.414;0.018;2023-04-03T14:16:23;16.10;99.90
42187;DHT22;27858;51.414;0.018;2023-04-03T14:18:50;16.30;99.90
42187;DHT22;27858;51.414;0.018;2023-04-03T14:21:19;16.40;99.90
42187;DHT22;27858;51.414;0.018;2023-04-03T14:23:46;16.40;99.90
42187;DHT22;27858;51.414;0.018;2023-04-03T14:26:19;16.60;99.90
42187;DHT22;27858;51.414;0.018;2023-04-03T14:28:50;16.70;99.90
42187;DHT22;27858;51.414;0.018;2023-04-03T14:31:18;16.80;99.90
42187;DHT22;27858;51.414;0.018;2023-04-03T14:33:46;16.90;99.90
42187;DHT22;27858;51.414;0.018;2023-04-03T14:36:14;16.90;99.90
42187;DHT22;27858;51.414;0.018;2023-04-03T14:38:43;17.10;99.90
42187;DHT22;27858;51.414;0.018;2023-04-03T14:41:13;16.90;99.90
42187;DHT22;27858;51.414;0.018;2023-04-03T14:43:44;16.90;99.90
42187;DHT22;27858;51.414;0.018;2023-04-03T14:46:17;17.10;99.90
42187;DHT22;27858;51.414;0.018;2023-04-03T14:48:44;17.20;99.90
42187;DHT22;27858;51.414;0.018;2023-04-03T14:51:13;17.30;99.90
42187;DHT22;27858;51.414;0.018;2023-04-03T14:53:41;17.40;99.90
42187;DHT22;27858;51.414;0.018;2023-04-03T14:56:19;17.70;99.90
42187;DHT22;27858;51.414;0.018;2023-04-03T14:58:49;17.70;99.90
42187;DHT22;27858;51.414;0.018;2023-04-03T15:01:18;18.20;99.90
42187;DHT22;27858;51.414;0.018;2023-04-03T15:03:45;18.40;99.90
42187;DHT22;27858;51.414;0.018;2023-04-03T15:06:13;18.20;99.90
42187;DHT22;27858;51.414;0.018;2023-04-03T15:08:42;18.20;99.90
42187;DHT22;27858;51.414;0.018;2023-04-03T15:11:10;18.30;99.90
42187;DHT22;27858;51.414;0.018;2023-04-03T15:13:38;17.70;99.90
42187;DHT22;27858;51.414;0.018;2023-04-03T15:16:18;17.90;99.90
42187;DHT22;27858;51.414;0.018;2023-04-03T15:18:46;17.90;99.90
42187;DHT22;27858;51.414;0.018;2023-04-03T15:21:13;18.00;99.90
42187;DHT22;27858;51.414;0.018;2023-04-03T15:23:40;18.10;99.90
42187;DHT22;27858;51.414;0.018;2023-04-03T15:26:08;18.20;99.90
42187;DHT22;27858;51.414;0.018;2023-04-03T15:31:03;18.60;99.90
42187;DHT22;27858;51.414;0.018;2023-04-03T15:33:31;18.60;99.90
42187;DHT22;27858;51.414;0.018;2023-04-03T15:35:59;18.80;99.90
42187;DHT22;27858;51.414;0.018;2023-04-03T15:38:33;18.90;99.90
42187;DHT22;27858;51.414;0.018;2023-04-03T15:41:03;19.10;99.90
42187;DHT22;27858;51.414;0.018;2023-04-03T15:43:31;18.90;99.90
42187;DHT22;27858;51.414;0.018;2023-04-03T15:45:58;19.00;99.90
42187;DHT22;27858;51.414;0.018;2023-04-03T15:48:26;18.40;99.90
42187;DHT22;27858;51.414;0.018;2023-04-03T15:50:54;19.00;99.90
42187;DHT22;27858;51.414;0.018;2023-04-03T15:53:23;19.20;99.90
42187;DHT22;27858;51.414;0.018;2023-04-03T15:55:50;19.00;99.90
42187;DHT22;27858;51.414;0.018;2023-04-03T15:58:17;19.30;99.90
42187;DHT22;27858;51.414;0.018;2023-04-03T16:00:43;19.40;99.90
42187;DHT22;27858;51.414;0.018;2023-04-03T16:03:18;19.60;99.90
42187;DHT22;27858;51.414;0.018;2023-04-03T16:05:46;19.50;99.90
42187;DHT22;27858;51.414;0.018;2023-04-03T16:08:14;19.50;99.90
42187;DHT22;27858;51.414;0.018;2023-04-03T16:10:41;19.70;99.90
42187;DHT22;27858;51.414;0.018;2023-04-03T16:13:08;19.80;99.90
42187;DHT22;27858;51.414;0.018;2023-04-03T16:15:35;19.60;99.90
42187;DHT22;27858;51.414;0.018;2023-04-03T16:18:03;19.20;99.90
42187;DHT22;27858;51.414;0.018;2023-04-03T16:20:30;19.50;99.90
42187;DHT22;27858;51.414;0.018;2023-04-03T16:22:59;19.90;99.90
42187;DHT22;27858;51.414;0.018;2023-04-03T16:25:27;20.00;97.80
42187;DHT22;27858;51.414;0.018;2023-04-03T16:27:54;19.90;99.90
42187;DHT22;27858;51.414;0.018;2023-04-03T16:30:21;19.40;99.90
42187;DHT22;27858;51.414;0.018;2023-04-03T16:32:48;19.90;99.90
42187;DHT22;27858;51.414;0.018;2023-04-03T16:35:15;19.30;99.90
42187;DHT22;27858;51.414;0.018;2023-04-03T16:37:42;19.40;99.90
42187;DHT22;27858;51.414;0.018;2023-04-03T16:40:09;19.60;99.90
42187;DHT22;27858;51.414;0.018;2023-04-03T16:42:36;19.70;99.90
42187;DHT22;27858;51.414;0.018;2023-04-03T16:45:05;19.70;99.90
42187;DHT22;27858;51.414;0.018;2023-04-03T16:47:32;19.50;99.90
42187;DHT22;27858;51.414;0.018;2023-04-03T16:49:59;19.80;99.90
42187;DHT22;27858;51.414;0.018;2023-04-03T16:52:27;19.70;99.90
42187;DHT22;27858;51.414;0.018;2023-04-03T16:54:53;19.60;99.90
42187;DHT22;27858;51.414;0.018;2023-04-03T16:57:22;19.80;99.90
42187;DHT22;27858;51.414;0.018;2023-04-03T16:59:52;19.50;99.90
42187;DHT22;27858;51.414;0.018;2023-04-03T17:02:20;19.60;99.90
42187;DHT22;27858;51.414;0.018;2023-04-03T17:04:47;19.90;99.90
42187;DHT22;27858;51.414;0.018;2023-04-03T17:07:18;20.40;99.90
42187;DHT22;27858;51.414;0.018;2023-04-03T17:09:46;20.00;99.90
42187;DHT22;27858;51.414;0.018;2023-04-03T17:12:13;19.70;99.90
42187;DHT22;27858;51.414;0.018;2023-04-03T17:14:40;20.10;99.90
42187;DHT22;27858;51.414;0.018;2023-04-03T17:17:07;19.70;99.90
42187;DHT22;27858;51.414;0.018;2023-04-03T17:19:36;19.40;99.90
42187;DHT22;27858;51.414;0.018;2023-04-03T17:22:03;19.60;99.90
42187;DHT22;27858;51.414;0.018;2023-04-03T17:24:30;19.30;99.90
42187;DHT22;27858;51.414;0.018;2023-04-03T17:26:57;18.80;98.90
42187;DHT22;27858;51.414;0.018;2023-04-03T17:29:24;18.40;99.90
42187;DHT22;27858;51.414;0.018;2023-04-03T17:31:50;18.20;99.90
42187;DHT22;27858;51.414;0.018;2023-04-03T17:34:17;17.70;99.90
42187;DHT22;27858;51.414;0.018;2023-04-03T17:36:44;17.60;99.90
42187;DHT22;27858;51.414;0.018;2023-04-03T17:39:14;17.40;99.90
42187;DHT22;27858;51.414;0.018;2023-04-03T17:41:42;17.10;99.90
42187;DHT22;27858;51.414;0.018;2023-04-03T17:44:12;17.20;99.90
42187;DHT22;27858;51.414;0.018;2023-04-03T17:46:39;16.80;99.90
42187;DHT22;27858;51.414;0.018;2023-04-03T17:49:06;16.20;99.90
42187;DHT22;27858;51.414;0.018;2023-04-03T17:51:33;15.50;99.90
42187;DHT22;27858;51.414;0.018;2023-04-03T17:54:01;14.60;99.90
42187;DHT22;27858;51.414;0.018;2023-04-03T17:56:28;14.40;99.90
42187;DHT22;27858;51.414;0.018;2023-04-03T17:58:56;14.00;99.90
42187;DHT22;27858;51.414;0.018;2023-04-03T18:01:27;13.50;99.90
42187;DHT22;27858;51.414;0.018;2023-04-03T18:03:56;13.20;99.90
42187;DHT22;27858;51.414;0.018;2023-04-03T18:06:32;12.90;99.90
42187;DHT22;27858;51.414;0.018;2023-04-03T18:09:09;12.50;99.90
42187;DHT22;27858;51.414;0.018;2023-04-03T18:11:37;12.20;99.90
42187;DHT22;27858;51.414;0.018;2023-04-03T18:14:04;11.90;99.90
42187;DHT22;27858;51.414;0.018;2023-04-03T18:16:33;11.70;99.90
42187;DHT22;27858;51.414;0.018;2023-04-03T18:19:00;11.60;99.90
42187;DHT22;27858;51.414;0.018;2023-04-03T18:21:47;11.30;99.90
42187;DHT22;27858;51.414;0.018;2023-04-03T18:24:16;11.10;99.90
42187;DHT22;27858;51.414;0.018;2023-04-03T18:26:47;11.00;99.90
42187;DHT22;27858;51.414;0.018;2023-04-03T18:29:15;10.90;99.90
42187;DHT22;27858;51.414;0.018;2023-04-03T18:31:45;10.60;99.90
42187;DHT22;27858;51.414;0.018;2023-04-03T18:34:13;10.60;99.90
42187;DHT22;27858;51.414;0.018;2023-04-03T18:36:40;10.50;99.90
42187;DHT22;27858;51.414;0.018;2023-04-03T18:39:07;10.40;99.90
42187;DHT22;27858;51.414;0.018;2023-04-03T18:41:35;10.30;99.90
42187;DHT22;27858;51.414;0.018;2023-04-03T18:44:04;10.30;99.90
42187;DHT22;27858;51.414;0.018;2023-04-03T18:46:32;10.20;99.90
42187;DHT22;27858;51.414;0.018;2023-04-03T18:48:59;10.20;99.90
42187;DHT22;27858;51.414;0.018;2023-04-03T18:51:26;10.10;99.90
42187;DHT22;27858;51.414;0.018;2023-04-03T18:53:53;9.90;99.90
42187;DHT22;27858;51.414;0.018;2023-04-03T18:56:20;9.70;99.90
42187;DHT22;27858;51.414;0.018;2023-04-03T18:58:47;9.80;99.90
42187;DHT22;27858;51.414;0.018;2023-04-03T19:01:15;9.70;99.90
42187;DHT22;27858;51.414;0.018;2023-04-03T19:03:42;9.60;99.90
42187;DHT22;27858;51.414;0.018;2023-04-03T19:06:09;9.50;99.90
42187;DHT22;27858;51.414;0.018;2023-04-03T19:08:35;9.50;99.90
42187;DHT22;27858;51.414;0.018;2023-04-03T19:11:02;9.30;99.90
42187;DHT22;27858;51.414;0.018;2023-04-03T19:13:29;9.20;99.90
42187;DHT22;27858;51.414;0.018;2023-04-03T19:15:58;9.10;99.90
42187;DHT22;27858;51.414;0.018;2023-04-03T19:18:26;9.00;99.90
42187;DHT22;27858;51.414;0.018;2023-04-03T19:20:54;9.00;99.90
42187;DHT22;27858;51.414;0.018;2023-04-03T19:23:22;9.10;99.90
42187;DHT22;27858;51.414;0.018;2023-04-03T19:25:57;9.10;99.90
42187;DHT22;27858;51.414;0.018;2023-04-03T19:28:24;9.00;99.90
42187;DHT22;27858;51.414;0.018;2023-04-03T19:30:52;9.00;99.90
42187;DHT22;27858;51.414;0.018;2023-04-03T19:33:19;8.90;99.90
42187;DHT22;27858;51.414;0.018;2023-04-03T19:35:46;8.90;99.90
42187;DHT22;27858;51.414;0.018;2023-04-03T19:38:13;8.80;99.90
42187;DHT22;27858;51.414;0.018;2023-04-03T19:40:40;8.70;99.90
42187;DHT22;27858;51.414;0.018;2023-04-03T19:43:13;8.70;99.90
42187;DHT22;27858;51.414;0.018;2023-04-03T19:45:40;8.70;99.90
42187;DHT22;27858;51.414;0.018;2023-04-03T19:48:08;8.70;99.90
42187;DHT22;27858;51.414;0.018;2023-04-03T19:50:35;8.70;99.90
42187;DHT22;27858;51.414;0.018;2023-04-03T19:53:02;8.70;99.90
42187;DHT22;27858;51.414;0.018;2023-04-03T19:55:29;8.70;99.90
42187;DHT22;27858;51.414;0.018;2023-04-03T19:57:58;8.70;99.90
42187;DHT22;27858;51.414;0.018;2023-04-03T20:00:28;8.60;99.90
42187;DHT22;27858;51.414;0.018;2023-04-03T20:02:57;8.60;99.90
42187;DHT22;27858;51.414;0.018;2023-04-03T20:05:24;8.40;99.90
42187;DHT22;27858;51.414;0.018;2023-04-03T20:07:51;8.30;99.90
42187;DHT22;27858;51.414;0.018;2023-04-03T20:10:18;8.30;99.90
42187;DHT22;27858;51.414;0.018;2023-04-03T20:12:46;8.20;99.90
42187;DHT22;27858;51.414;0.018;2023-04-03T20:15:13;8.20;99.90
42187;DHT22;27858;51.414;0.018;2023-04-03T20:17:39;8.20;99.90
42187;DHT22;27858;51.414;0.018;2023-04-03T20:20:07;8.20;99.90
42187;DHT22;27858;51.414;0.018;2023-04-03T20:22:36;8.10;99.90
42187;DHT22;27858;51.414;0.018;2023-04-03T20:25:09;8.10;99.90
42187;DHT22;27858;51.414;0.018;2023-04-03T20:27:36;8.00;99.90
42187;DHT22;27858;51.414;0.018;2023-04-03T20:30:05;8.00;99.90
42187;DHT22;27858;51.414;0.018;2023-04-03T20:32:34;8.00;99.90
42187;DHT22;27858;51.414;0.018;2023-04-03T20:35:01;8.00;99.90
42187;DHT22;27858;51.414;0.018;2023-04-03T20:37:30;7.90;99.90
42187;DHT22;27858;51.414;0.018;2023-04-03T20:39:57;7.80;99.90
42187;DHT22;27858;51.414;0.018;2023-04-03T20:42:24;7.70;99.90
42187;DHT22;27858;51.414;0.018;2023-04-03T20:44:51;7.70;99.90
42187;DHT22;27858;51.414;0.018;2023-04-03T20:47:18;7.60;99.90
42187;DHT22;27858;51.414;0.018;2023-04-03T20:49:45;7.60;99.90
42187;DHT22;27858;51.414;0.018;2023-04-03T20:52:12;7.60;99.90
42187;DHT22;27858;51.414;0.018;2023-04-03T20:54:39;7.50;99.90
42187;DHT22;27858;51.414;0.018;2023-04-03T20:57:06;7.50;99.90
42187;DHT22;27858;51.414;0.018;2023-04-03T20:59:33;7.40;99.90
42187;DHT22;27858;51.414;0.018;2023-04-03T21:02:01;7.40;99.90
42187;DHT22;27858;51.414;0.018;2023-04-03T21:04:43;7.40;99.90
42187;DHT22;27858;51.414;0.018;2023-04-03T21:19:12;7.30;99.90
42187;DHT22;27858;51.414;0.018;2023-04-03T21:21:44;7.30;99.90
42187;DHT22;27858;51.414;0.018;2023-04-03T21:24:13;7.20;99.90
42187;DHT22;27858;51.414;0.018;2023-04-03T21:26:42;7.20;99.90
42187;DHT22;27858;51.414;0.018;2023-04-03T21:29:10;7.10;99.90
42187;DHT22;27858;51.414;0.018;2023-04-03T21:31:56;7.10;99.90
42187;DHT22;27858;51.414;0.018;2023-04-03T21:34:27;7.10;99.90
42187;DHT22;27858;51.414;0.018;2023-04-03T21:37:04;7.20;99.90
42187;DHT22;27858;51.414;0.018;2023-04-03T21:39:34;7.10;99.90
42187;DHT22;27858;51.414;0.018;2023-04-03T21:42:01;7.10;99.90
42187;DHT22;27858;51.414;0.018;2023-04-03T21:44:28;7.10;99.90
42187;DHT22;27858;51.414;0.018;2023-04-03T21:46:54;7.00;99.90
42187;DHT22;27858;51.414;0.018;2023-04-03T21:49:23;7.00;99.90
42187;DHT22;27858;51.414;0.018;2023-04-03T21:51:50;6.80;99.90
42187;DHT22;27858;51.414;0.018;2023-04-03T21:54:18;6.80;99.90
42187;DHT22;27858;51.414;0.018;2023-04-03T21:56:45;6.80;99.90